sensor_id;sensor_type;location;lat;lon;timestamp;P1;durP1;ratioP1;P2;durP2;ratioP2
75427;SDS011;64008;55.612;37.698;2023-02-07T00:02:15;6.40;;;3.00;;
75427;SDS011;64008;55.612;37.698;2023-02-07T00:04:40;5.82;;;3.42;;
75427;SDS011;64008;55.612;37.698;2023-02-07T00:07:06;6.10;;;3.22;;
75427;SDS011;64008;55.612;37.698;2023-02-07T00:09:31;4.72;;;2.47;;
75427;SDS011;64008;55.612;37.698;2023-02-07T00:11:57;5.93;;;3.38;;
75427;SDS011;64008;55.612;37.698;2023-02-07T00:14:22;7.63;;;3.22;;
75427;SDS011;64008;55.612;37.698;2023-02-07T00:16:48;6.45;;;3.17;;
75427;SDS011;64008;55.612;37.698;2023-02-07T00:19:13;6.78;;;3.22;;
75427;SDS011;64008;55.612;37.698;2023-02-07T00:21:42;6.95;;;3.15;;
75427;SDS011;64008;55.612;37.698;2023-02-07T00:24:08;6.70;;;2.97;;
75427;SDS011;64008;55.612;37.698;2023-02-07T00:26:34;6.50;;;3.05;;
75427;SDS011;64008;55.612;37.698;2023-02-07T00:28:59;5.70;;;3.10;;
75427;SDS011;64008;55.612;37.698;2023-02-07T00:31:26;7.03;;;3.30;;
75427;SDS011;64008;55.612;37.698;2023-02-07T00:33:54;6.03;;;3.05;;
75427;SDS011;64008;55.612;37.698;2023-02-07T00:36:22;6.53;;;2.78;;
75427;SDS011;64008;55.612;37.698;2023-02-07T00:38:49;6.50;;;3.40;;
75427;SDS011;64008;55.612;37.698;2023-02-07T00:41:15;5.50;;;2.90;;
75427;SDS011;64008;55.612;37.698;2023-02-07T00:43:43;4.90;;;2.65;;
75427;SDS011;64008;55.612;37.698;2023-02-07T00:46:09;6.82;;;3.30;;
75427;SDS011;64008;55.612;37.698;2023-02-07T00:48:35;6.60;;;3.20;;
75427;SDS011;64008;55.612;37.698;2023-02-07T00:51:03;6.80;;;3.03;;
75427;SDS011;64008;55.612;37.698;2023-02-07T00:53:29;5.60;;;2.72;;
75427;SDS011;64008;55.612;37.698;2023-02-07T00:55:54;5.95;;;2.92;;
75427;SDS011;64008;55.612;37.698;2023-02-07T00:58:20;5.38;;;2.70;;
75427;SDS011;64008;55.612;37.698;2023-02-07T01:00:46;6.22;;;3.33;;
75427;SDS011;64008;55.612;37.698;2023-02-07T01:03:14;6.22;;;3.13;;
75427;SDS011;64008;55.612;37.698;2023-02-07T01:05:40;6.43;;;2.85;;
75427;SDS011;64008;55.612;37.698;2023-02-07T01:08:06;6.18;;;2.67;;
75427;SDS011;64008;55.612;37.698;2023-02-07T01:10:31;4.78;;;2.42;;
75427;SDS011;64008;55.612;37.698;2023-02-07T01:12:57;5.43;;;2.50;;
75427;SDS011;64008;55.612;37.698;2023-02-07T01:15:23;5.45;;;2.58;;
75427;SDS011;64008;55.612;37.698;2023-02-07T01:17:48;5.05;;;2.47;;
75427;SDS011;64008;55.612;37.698;2023-02-07T01:20:14;5.85;;;2.63;;
75427;SDS011;64008;55.612;37.698;2023-02-07T01:22:40;5.80;;;2.60;;
75427;SDS011;64008;55.612;37.698;2023-02-07T01:25:06;5.20;;;2.60;;
75427;SDS011;64008;55.612;37.698;2023-02-07T01:27:32;5.22;;;2.63;;
75427;SDS011;64008;55.612;37.698;2023-02-07T01:29:58;5.78;;;2.70;;
75427;SDS011;64008;55.612;37.698;2023-02-07T01:32:24;5.80;;;2.38;;
75427;SDS011;64008;55.612;37.698;2023-02-07T01:34:50;8.27;;;2.67;;
75427;SDS011;64008;55.612;37.698;2023-02-07T01:37:15;6.05;;;3.13;;
75427;SDS011;64008;55.612;37.698;2023-02-07T01:39:41;5.28;;;2.67;;
75427;SDS011;64008;55.612;37.698;2023-02-07T01:42:09;5.50;;;2.55;;
75427;SDS011;64008;55.612;37.698;2023-02-07T01:44:59;5.05;;;2.20;;
75427;SDS011;64008;55.612;37.698;2023-02-07T01:47:25;5.63;;;2.63;;
75427;SDS011;64008;55.612;37.698;2023-02-07T01:49:52;5.32;;;2.40;;
75427;SDS011;64008;55.612;37.698;2023-02-07T01:52:33;6.03;;;2.65;;
75427;SDS011;64008;55.612;37.698;2023-02-07T01:55:06;5.80;;;2.78;;
75427;SDS011;64008;55.612;37.698;2023-02-07T01:57:35;5.28;;;2.40;;
75427;SDS011;64008;55.612;37.698;2023-02-07T02:00:01;7.07;;;2.95;;
75427;SDS011;64008;55.612;37.698;2023-02-07T02:02:28;5.32;;;2.70;;
75427;SDS011;64008;55.612;37.698;2023-02-07T02:04:56;6.07;;;2.97;;
75427;SDS011;64008;55.612;37.698;2023-02-07T02:07:22;5.85;;;2.72;;
75427;SDS011;64008;55.612;37.698;2023-02-07T02:09:49;5.20;;;2.95;;
75427;SDS011;64008;55.612;37.698;2023-02-07T02:12:29;7.53;;;2.67;;
75427;SDS011;64008;55.612;37.698;2023-02-07T02:15:28;6.13;;;2.90;;
75427;SDS011;64008;55.612;37.698;2023-02-07T02:24:09;5.78;;;2.97;;
75427;SDS011;64008;55.612;37.698;2023-02-07T02:35:29;5.13;;;2.22;;
75427;SDS011;64008;55.612;37.698;2023-02-07T02:40:33;5.78;;;2.38;;
75427;SDS011;64008;55.612;37.698;2023-02-07T02:43:10;5.55;;;2.30;;
75427;SDS011;64008;55.612;37.698;2023-02-07T02:45:56;4.88;;;2.58;;
75427;SDS011;64008;55.612;37.698;2023-02-07T02:48:42;6.05;;;2.83;;
75427;SDS011;64008;55.612;37.698;2023-02-07T02:51:09;5.75;;;2.70;;
75427;SDS011;64008;55.612;37.698;2023-02-07T02:53:34;5.82;;;2.70;;
75427;SDS011;64008;55.612;37.698;2023-02-07T03:10:02;5.97;;;2.90;;
75427;SDS011;64008;55.612;37.698;2023-02-07T03:18:49;6.13;;;2.65;;
75427;SDS011;64008;55.612;37.698;2023-02-07T03:23:51;7.13;;;3.17;;
75427;SDS011;64008;55.612;37.698;2023-02-07T03:26:19;6.03;;;2.85;;
75427;SDS011;64008;55.612;37.698;2023-02-07T03:28:47;6.28;;;3.10;;
75427;SDS011;64008;55.612;37.698;2023-02-07T03:31:17;5.18;;;2.75;;
75427;SDS011;64008;55.612;37.698;2023-02-07T03:33:46;6.55;;;3.25;;
75427;SDS011;64008;55.612;37.698;2023-02-07T03:38:40;6.72;;;3.55;;
75427;SDS011;64008;55.612;37.698;2023-02-07T03:41:08;6.40;;;3.03;;
75427;SDS011;64008;55.612;37.698;2023-02-07T03:43:40;6.22;;;2.90;;
75427;SDS011;64008;55.612;37.698;2023-02-07T03:46:08;6.13;;;2.97;;
75427;SDS011;64008;55.612;37.698;2023-02-07T03:48:34;5.50;;;2.78;;
75427;SDS011;64008;55.612;37.698;2023-02-07T03:51:00;5.72;;;2.85;;
75427;SDS011;64008;55.612;37.698;2023-02-07T03:53:25;6.20;;;3.10;;
75427;SDS011;64008;55.612;37.698;2023-02-07T03:55:51;6.97;;;3.20;;
75427;SDS011;64008;55.612;37.698;2023-02-07T03:58:17;5.82;;;2.60;;
75427;SDS011;64008;55.612;37.698;2023-02-07T04:00:43;7.22;;;3.08;;
75427;SDS011;64008;55.612;37.698;2023-02-07T04:03:09;8.00;;;2.80;;
75427;SDS011;64008;55.612;37.698;2023-02-07T04:05:34;6.90;;;3.30;;
75427;SDS011;64008;55.612;37.698;2023-02-07T04:08:00;6.55;;;3.20;;
75427;SDS011;64008;55.612;37.698;2023-02-07T04:10:26;6.50;;;3.10;;
75427;SDS011;64008;55.612;37.698;2023-02-07T04:12:51;6.85;;;3.42;;
75427;SDS011;64008;55.612;37.698;2023-02-07T04:15:17;7.50;;;3.28;;
75427;SDS011;64008;55.612;37.698;2023-02-07T04:17:42;6.53;;;3.13;;
75427;SDS011;64008;55.612;37.698;2023-02-07T04:20:08;6.40;;;3.22;;
75427;SDS011;64008;55.612;37.698;2023-02-07T04:22:34;6.50;;;3.30;;
75427;SDS011;64008;55.612;37.698;2023-02-07T04:25:00;5.57;;;2.90;;
75427;SDS011;64008;55.612;37.698;2023-02-07T04:27:25;6.90;;;3.53;;
75427;SDS011;64008;55.612;37.698;2023-02-07T04:29:53;6.82;;;3.15;;
75427;SDS011;64008;55.612;37.698;2023-02-07T04:32:20;6.82;;;3.20;;
75427;SDS011;64008;55.612;37.698;2023-02-07T04:34:45;6.25;;;3.20;;
75427;SDS011;64008;55.612;37.698;2023-02-07T04:37:11;7.18;;;3.50;;
75427;SDS011;64008;55.612;37.698;2023-02-07T04:39:36;7.65;;;3.40;;
75427;SDS011;64008;55.612;37.698;2023-02-07T04:42:02;6.25;;;3.03;;
75427;SDS011;64008;55.612;37.698;2023-02-07T04:44:28;6.88;;;3.70;;
75427;SDS011;64008;55.612;37.698;2023-02-07T04:46:53;6.22;;;2.97;;
75427;SDS011;64008;55.612;37.698;2023-02-07T04:49:19;8.27;;;3.30;;
75427;SDS011;64008;55.612;37.698;2023-02-07T04:51:44;6.95;;;3.28;;
75427;SDS011;64008;55.612;37.698;2023-02-07T04:54:10;6.97;;;3.30;;
75427;SDS011;64008;55.612;37.698;2023-02-07T04:56:35;7.40;;;3.55;;
75427;SDS011;64008;55.612;37.698;2023-02-07T04:59:01;6.05;;;3.00;;
75427;SDS011;64008;55.612;37.698;2023-02-07T05:01:26;6.53;;;3.08;;
75427;SDS011;64008;55.612;37.698;2023-02-07T05:03:52;7.20;;;3.65;;
75427;SDS011;64008;55.612;37.698;2023-02-07T05:06:20;7.28;;;3.22;;
75427;SDS011;64008;55.612;37.698;2023-02-07T05:08:46;7.75;;;3.83;;
75427;SDS011;64008;55.612;37.698;2023-02-07T05:11:11;6.47;;;3.22;;
75427;SDS011;64008;55.612;37.698;2023-02-07T05:13:37;7.10;;;3.30;;
75427;SDS011;64008;55.612;37.698;2023-02-07T05:16:03;7.18;;;3.45;;
75427;SDS011;64008;55.612;37.698;2023-02-07T05:20:56;8.27;;;3.58;;
75427;SDS011;64008;55.612;37.698;2023-02-07T05:23:22;6.88;;;3.42;;
75427;SDS011;64008;55.612;37.698;2023-02-07T05:25:47;8.43;;;3.63;;
75427;SDS011;64008;55.612;37.698;2023-02-07T05:28:13;7.25;;;3.80;;
75427;SDS011;64008;55.612;37.698;2023-02-07T05:30:39;6.55;;;3.22;;
75427;SDS011;64008;55.612;37.698;2023-02-07T05:33:04;6.50;;;2.97;;
75427;SDS011;64008;55.612;37.698;2023-02-07T05:38:00;7.35;;;3.33;;
75427;SDS011;64008;55.612;37.698;2023-02-07T05:40:34;6.55;;;3.35;;
75427;SDS011;64008;55.612;37.698;2023-02-07T05:43:00;7.13;;;3.65;;
75427;SDS011;64008;55.612;37.698;2023-02-07T05:45:26;6.47;;;3.15;;
75427;SDS011;64008;55.612;37.698;2023-02-07T05:47:51;11.10;;;3.72;;
75427;SDS011;64008;55.612;37.698;2023-02-07T05:50:17;6.22;;;3.38;;
75427;SDS011;64008;55.612;37.698;2023-02-07T05:52:43;7.80;;;3.45;;
75427;SDS011;64008;55.612;37.698;2023-02-07T05:55:09;6.70;;;3.17;;
75427;SDS011;64008;55.612;37.698;2023-02-07T05:57:40;7.57;;;4.03;;
75427;SDS011;64008;55.612;37.698;2023-02-07T06:00:07;7.53;;;3.50;;
75427;SDS011;64008;55.612;37.698;2023-02-07T06:02:41;7.45;;;3.65;;
75427;SDS011;64008;55.612;37.698;2023-02-07T06:05:08;7.35;;;3.53;;
75427;SDS011;64008;55.612;37.698;2023-02-07T06:07:35;7.22;;;3.33;;
75427;SDS011;64008;55.612;37.698;2023-02-07T06:10:01;7.78;;;3.70;;
75427;SDS011;64008;55.612;37.698;2023-02-07T06:12:27;8.18;;;3.75;;
75427;SDS011;64008;55.612;37.698;2023-02-07T06:14:53;6.35;;;3.25;;
75427;SDS011;64008;55.612;37.698;2023-02-07T06:17:18;7.88;;;3.83;;
75427;SDS011;64008;55.612;37.698;2023-02-07T06:19:44;7.20;;;3.95;;
75427;SDS011;64008;55.612;37.698;2023-02-07T06:22:09;6.63;;;3.53;;
75427;SDS011;64008;55.612;37.698;2023-02-07T06:24:35;7.22;;;3.55;;
75427;SDS011;64008;55.612;37.698;2023-02-07T06:27:00;6.35;;;3.33;;
75427;SDS011;64008;55.612;37.698;2023-02-07T06:29:26;8.45;;;4.47;;
75427;SDS011;64008;55.612;37.698;2023-02-07T06:31:52;7.18;;;3.42;;
75427;SDS011;64008;55.612;37.698;2023-02-07T06:34:17;6.43;;;3.55;;
75427;SDS011;64008;55.612;37.698;2023-02-07T06:36:43;7.70;;;3.75;;
75427;SDS011;64008;55.612;37.698;2023-02-07T06:39:08;8.45;;;3.80;;
75427;SDS011;64008;55.612;37.698;2023-02-07T06:41:36;6.75;;;3.78;;
75427;SDS011;64008;55.612;37.698;2023-02-07T06:44:02;6.15;;;3.05;;
75427;SDS011;64008;55.612;37.698;2023-02-07T06:46:27;7.60;;;3.70;;
75427;SDS011;64008;55.612;37.698;2023-02-07T06:48:53;7.45;;;3.28;;
75427;SDS011;64008;55.612;37.698;2023-02-07T06:51:20;7.15;;;3.60;;
75427;SDS011;64008;55.612;37.698;2023-02-07T06:53:48;8.02;;;3.50;;
75427;SDS011;64008;55.612;37.698;2023-02-07T06:56:14;7.00;;;3.47;;
75427;SDS011;64008;55.612;37.698;2023-02-07T06:58:39;6.72;;;3.72;;
75427;SDS011;64008;55.612;37.698;2023-02-07T07:01:05;7.35;;;3.78;;
75427;SDS011;64008;55.612;37.698;2023-02-07T07:03:33;6.95;;;3.58;;
75427;SDS011;64008;55.612;37.698;2023-02-07T07:06:01;6.82;;;3.60;;
75427;SDS011;64008;55.612;37.698;2023-02-07T07:08:26;18.25;;;12.75;;
75427;SDS011;64008;55.612;37.698;2023-02-07T07:10:52;7.70;;;3.85;;
75427;SDS011;64008;55.612;37.698;2023-02-07T07:13:18;9.38;;;4.13;;
75427;SDS011;64008;55.612;37.698;2023-02-07T07:15:45;7.50;;;3.70;;
75427;SDS011;64008;55.612;37.698;2023-02-07T07:18:11;9.20;;;4.15;;
75427;SDS011;64008;55.612;37.698;2023-02-07T07:20:37;7.60;;;3.97;;
75427;SDS011;64008;55.612;37.698;2023-02-07T07:23:02;8.50;;;3.90;;
75427;SDS011;64008;55.612;37.698;2023-02-07T07:25:28;8.10;;;4.00;;
75427;SDS011;64008;55.612;37.698;2023-02-07T07:27:54;9.70;;;3.83;;
75427;SDS011;64008;55.612;37.698;2023-02-07T07:30:20;6.95;;;3.58;;
75427;SDS011;64008;55.612;37.698;2023-02-07T07:32:45;9.80;;;3.97;;
75427;SDS011;64008;55.612;37.698;2023-02-07T07:35:11;11.43;;;4.20;;
75427;SDS011;64008;55.612;37.698;2023-02-07T07:37:39;11.13;;;4.32;;
75427;SDS011;64008;55.612;37.698;2023-02-07T07:40:06;9.45;;;3.95;;
75427;SDS011;64008;55.612;37.698;2023-02-07T07:42:32;8.82;;;4.18;;
75427;SDS011;64008;55.612;37.698;2023-02-07T07:44:59;7.75;;;4.15;;
75427;SDS011;64008;55.612;37.698;2023-02-07T07:47:24;7.93;;;4.38;;
75427;SDS011;64008;55.612;37.698;2023-02-07T07:49:57;9.20;;;4.35;;
75427;SDS011;64008;55.612;37.698;2023-02-07T07:52:23;7.15;;;3.67;;
75427;SDS011;64008;55.612;37.698;2023-02-07T07:54:48;8.43;;;4.43;;
75427;SDS011;64008;55.612;37.698;2023-02-07T07:57:14;8.15;;;4.25;;
75427;SDS011;64008;55.612;37.698;2023-02-07T07:59:39;8.45;;;4.07;;
75427;SDS011;64008;55.612;37.698;2023-02-07T08:02:05;8.13;;;3.80;;
75427;SDS011;64008;55.612;37.698;2023-02-07T08:04:30;7.60;;;3.65;;
75427;SDS011;64008;55.612;37.698;2023-02-07T08:06:56;8.90;;;3.90;;
75427;SDS011;64008;55.612;37.698;2023-02-07T08:09:21;8.00;;;3.83;;
75427;SDS011;64008;55.612;37.698;2023-02-07T08:11:49;9.50;;;4.03;;
75427;SDS011;64008;55.612;37.698;2023-02-07T08:14:15;12.32;;;4.47;;
75427;SDS011;64008;55.612;37.698;2023-02-07T08:16:40;7.60;;;3.70;;
75427;SDS011;64008;55.612;37.698;2023-02-07T08:19:06;7.38;;;3.40;;
75427;SDS011;64008;55.612;37.698;2023-02-07T08:21:31;8.13;;;3.80;;
75427;SDS011;64008;55.612;37.698;2023-02-07T08:23:57;7.55;;;3.50;;
75427;SDS011;64008;55.612;37.698;2023-02-07T08:26:22;7.57;;;3.70;;
75427;SDS011;64008;55.612;37.698;2023-02-07T08:28:48;6.95;;;3.90;;
75427;SDS011;64008;55.612;37.698;2023-02-07T08:31:16;8.25;;;3.60;;
75427;SDS011;64008;55.612;37.698;2023-02-07T08:33:42;8.18;;;3.92;;
75427;SDS011;64008;55.612;37.698;2023-02-07T08:36:08;6.65;;;3.75;;
75427;SDS011;64008;55.612;37.698;2023-02-07T08:38:35;8.40;;;3.88;;
75427;SDS011;64008;55.612;37.698;2023-02-07T08:41:04;7.05;;;3.67;;
75427;SDS011;64008;55.612;37.698;2023-02-07T08:43:30;8.38;;;4.25;;
75427;SDS011;64008;55.612;37.698;2023-02-07T08:45:56;9.25;;;3.60;;
75427;SDS011;64008;55.612;37.698;2023-02-07T08:48:21;7.47;;;3.67;;
75427;SDS011;64008;55.612;37.698;2023-02-07T08:50:47;9.50;;;3.80;;
75427;SDS011;64008;55.612;37.698;2023-02-07T08:53:13;10.52;;;3.90;;
75427;SDS011;64008;55.612;37.698;2023-02-07T08:55:39;9.82;;;4.03;;
75427;SDS011;64008;55.612;37.698;2023-02-07T08:58:08;7.93;;;3.85;;
75427;SDS011;64008;55.612;37.698;2023-02-07T09:00:34;7.43;;;3.38;;
75427;SDS011;64008;55.612;37.698;2023-02-07T09:03:03;11.95;;;4.20;;
75427;SDS011;64008;55.612;37.698;2023-02-07T09:05:29;10.00;;;4.03;;
75427;SDS011;64008;55.612;37.698;2023-02-07T09:07:58;9.77;;;4.63;;
75427;SDS011;64008;55.612;37.698;2023-02-07T09:10:24;14.20;;;6.05;;
75427;SDS011;64008;55.612;37.698;2023-02-07T09:12:50;17.30;;;7.00;;
75427;SDS011;64008;55.612;37.698;2023-02-07T09:15:15;16.85;;;6.45;;
75427;SDS011;64008;55.612;37.698;2023-02-07T09:17:41;13.73;;;5.72;;
75427;SDS011;64008;55.612;37.698;2023-02-07T09:20:07;13.63;;;5.88;;
75427;SDS011;64008;55.612;37.698;2023-02-07T09:22:34;12.75;;;5.28;;
75427;SDS011;64008;55.612;37.698;2023-02-07T09:25:19;12.90;;;5.10;;
75427;SDS011;64008;55.612;37.698;2023-02-07T09:27:45;12.10;;;5.00;;
75427;SDS011;64008;55.612;37.698;2023-02-07T09:30:10;12.35;;;5.53;;
75427;SDS011;64008;55.612;37.698;2023-02-07T09:32:36;11.00;;;5.53;;
75427;SDS011;64008;55.612;37.698;2023-02-07T09:35:01;8.68;;;4.82;;
75427;SDS011;64008;55.612;37.698;2023-02-07T09:37:27;12.32;;;5.68;;
75427;SDS011;64008;55.612;37.698;2023-02-07T09:39:52;12.65;;;5.20;;
75427;SDS011;64008;55.612;37.698;2023-02-07T09:45:02;10.52;;;4.93;;
75427;SDS011;64008;55.612;37.698;2023-02-07T09:47:32;10.73;;;4.55;;
75427;SDS011;64008;55.612;37.698;2023-02-07T09:50:03;12.57;;;5.03;;
75427;SDS011;64008;55.612;37.698;2023-02-07T09:52:53;8.85;;;4.60;;
75427;SDS011;64008;55.612;37.698;2023-02-07T09:55:24;9.43;;;5.25;;
75427;SDS011;64008;55.612;37.698;2023-02-07T09:58:11;10.05;;;4.50;;
75427;SDS011;64008;55.612;37.698;2023-02-07T10:00:41;10.50;;;5.00;;
75427;SDS011;64008;55.612;37.698;2023-02-07T10:08:26;9.07;;;4.72;;
75427;SDS011;64008;55.612;37.698;2023-02-07T10:11:12;8.57;;;4.65;;
75427;SDS011;64008;55.612;37.698;2023-02-07T10:17:00;8.63;;;4.82;;
75427;SDS011;64008;55.612;37.698;2023-02-07T10:19:55;8.27;;;4.55;;
75427;SDS011;64008;55.612;37.698;2023-02-07T10:25:23;10.82;;;4.80;;
75427;SDS011;64008;55.612;37.698;2023-02-07T10:30:53;8.93;;;4.60;;
75427;SDS011;64008;55.612;37.698;2023-02-07T10:33:32;11.82;;;5.35;;
75427;SDS011;64008;55.612;37.698;2023-02-07T10:36:05;7.78;;;4.38;;
75427;SDS011;64008;55.612;37.698;2023-02-07T10:41:33;9.77;;;4.80;;
75427;SDS011;64008;55.612;37.698;2023-02-07T10:44:02;8.80;;;4.90;;
75427;SDS011;64008;55.612;37.698;2023-02-07T10:46:30;8.93;;;4.60;;
75427;SDS011;64008;55.612;37.698;2023-02-07T10:48:57;10.43;;;4.63;;
75427;SDS011;64008;55.612;37.698;2023-02-07T10:51:33;8.10;;;4.25;;
75427;SDS011;64008;55.612;37.698;2023-02-07T10:56:27;10.90;;;4.50;;
75427;SDS011;64008;55.612;37.698;2023-02-07T10:58:58;14.85;;;6.43;;
75427;SDS011;64008;55.612;37.698;2023-02-07T11:01:28;11.88;;;5.07;;
75427;SDS011;64008;55.612;37.698;2023-02-07T11:03:56;11.18;;;4.75;;
75427;SDS011;64008;55.612;37.698;2023-02-07T11:06:23;19.13;;;8.20;;
75427;SDS011;64008;55.612;37.698;2023-02-07T11:11:48;9.63;;;4.65;;
75427;SDS011;64008;55.612;37.698;2023-02-07T11:14:16;8.05;;;4.22;;
75427;SDS011;64008;55.612;37.698;2023-02-07T11:16:45;8.60;;;4.28;;
75427;SDS011;64008;55.612;37.698;2023-02-07T11:21:46;7.50;;;3.78;;
75427;SDS011;64008;55.612;37.698;2023-02-07T11:24:33;8.90;;;4.75;;
75427;SDS011;64008;55.612;37.698;2023-02-07T11:27:02;8.98;;;3.55;;
75427;SDS011;64008;55.612;37.698;2023-02-07T11:29:51;8.02;;;3.08;;
75427;SDS011;64008;55.612;37.698;2023-02-07T11:32:23;7.43;;;3.55;;
75427;SDS011;64008;55.612;37.698;2023-02-07T11:34:52;8.13;;;3.95;;
75427;SDS011;64008;55.612;37.698;2023-02-07T11:37:24;6.20;;;3.45;;
75427;SDS011;64008;55.612;37.698;2023-02-07T11:39:55;6.95;;;3.30;;
75427;SDS011;64008;55.612;37.698;2023-02-07T11:42:41;7.10;;;3.70;;
75427;SDS011;64008;55.612;37.698;2023-02-07T11:45:12;9.20;;;3.95;;
75427;SDS011;64008;55.612;37.698;2023-02-07T11:47:39;7.10;;;3.38;;
75427;SDS011;64008;55.612;37.698;2023-02-07T11:50:07;7.07;;;4.05;;
75427;SDS011;64008;55.612;37.698;2023-02-07T11:52:47;6.78;;;3.42;;
75427;SDS011;64008;55.612;37.698;2023-02-07T11:55:23;6.65;;;3.47;;
75427;SDS011;64008;55.612;37.698;2023-02-07T11:57:56;7.68;;;3.50;;
75427;SDS011;64008;55.612;37.698;2023-02-07T12:00:26;7.68;;;3.85;;
75427;SDS011;64008;55.612;37.698;2023-02-07T12:02:58;8.88;;;3.47;;
75427;SDS011;64008;55.612;37.698;2023-02-07T12:05:34;6.88;;;3.47;;
75427;SDS011;64008;55.612;37.698;2023-02-07T12:08:16;6.78;;;3.35;;
75427;SDS011;64008;55.612;37.698;2023-02-07T12:10:46;6.82;;;3.22;;
75427;SDS011;64008;55.612;37.698;2023-02-07T12:13:17;6.35;;;3.08;;
75427;SDS011;64008;55.612;37.698;2023-02-07T12:26:27;6.68;;;3.90;;
75427;SDS011;64008;55.612;37.698;2023-02-07T12:37:40;7.38;;;3.60;;
75427;SDS011;64008;55.612;37.698;2023-02-07T12:40:40;7.93;;;3.88;;
75427;SDS011;64008;55.612;37.698;2023-02-07T12:43:49;6.15;;;3.17;;
75427;SDS011;64008;55.612;37.698;2023-02-07T12:57:12;6.57;;;3.45;;
75427;SDS011;64008;55.612;37.698;2023-02-07T13:00:02;6.90;;;3.75;;
75427;SDS011;64008;55.612;37.698;2023-02-07T13:02:34;7.00;;;3.88;;
75427;SDS011;64008;55.612;37.698;2023-02-07T13:08:07;7.22;;;3.67;;
75427;SDS011;64008;55.612;37.698;2023-02-07T13:13:31;6.28;;;3.42;;
75427;SDS011;64008;55.612;37.698;2023-02-07T13:16:10;9.23;;;4.10;;
75427;SDS011;64008;55.612;37.698;2023-02-07T13:18:59;7.85;;;4.28;;
75427;SDS011;64008;55.612;37.698;2023-02-07T13:24:05;7.93;;;4.22;;
75427;SDS011;64008;55.612;37.698;2023-02-07T13:26:33;6.85;;;3.88;;
75427;SDS011;64008;55.612;37.698;2023-02-07T13:29:04;8.55;;;4.63;;
75427;SDS011;64008;55.612;37.698;2023-02-07T13:34:08;7.43;;;4.70;;
75427;SDS011;64008;55.612;37.698;2023-02-07T13:36:44;7.75;;;4.35;;
75427;SDS011;64008;55.612;37.698;2023-02-07T13:45:15;8.13;;;4.35;;
75427;SDS011;64008;55.612;37.698;2023-02-07T13:56:08;8.27;;;4.57;;
75427;SDS011;64008;55.612;37.698;2023-02-07T13:58:55;8.73;;;4.25;;
75427;SDS011;64008;55.612;37.698;2023-02-07T14:01:48;9.25;;;4.55;;
75427;SDS011;64008;55.612;37.698;2023-02-07T14:04:16;7.63;;;3.88;;
75427;SDS011;64008;55.612;37.698;2023-02-07T14:09:22;7.63;;;4.43;;
75427;SDS011;64008;55.612;37.698;2023-02-07T14:12:06;8.07;;;4.50;;
75427;SDS011;64008;55.612;37.698;2023-02-07T14:14:42;7.80;;;4.05;;
75427;SDS011;64008;55.612;37.698;2023-02-07T14:17:08;8.93;;;4.30;;
75427;SDS011;64008;55.612;37.698;2023-02-07T14:22:23;7.07;;;4.05;;
75427;SDS011;64008;55.612;37.698;2023-02-07T14:27:25;8.93;;;3.70;;
75427;SDS011;64008;55.612;37.698;2023-02-07T14:37:51;9.32;;;3.95;;
75427;SDS011;64008;55.612;37.698;2023-02-07T14:43:16;8.07;;;4.32;;
75427;SDS011;64008;55.612;37.698;2023-02-07T14:51:13;9.98;;;3.70;;
75427;SDS011;64008;55.612;37.698;2023-02-07T14:53:54;6.78;;;3.45;;
75427;SDS011;64008;55.612;37.698;2023-02-07T14:56:27;10.07;;;3.92;;
75427;SDS011;64008;55.612;37.698;2023-02-07T14:58:55;7.22;;;3.50;;
75427;SDS011;64008;55.612;37.698;2023-02-07T15:01:23;8.30;;;4.38;;
75427;SDS011;64008;55.612;37.698;2023-02-07T15:03:59;7.75;;;4.03;;
75427;SDS011;64008;55.612;37.698;2023-02-07T15:06:34;7.90;;;3.83;;
75427;SDS011;64008;55.612;37.698;2023-02-07T15:09:03;7.63;;;3.80;;
75427;SDS011;64008;55.612;37.698;2023-02-07T15:11:29;8.20;;;4.18;;
75427;SDS011;64008;55.612;37.698;2023-02-07T15:13:56;7.82;;;4.07;;
75427;SDS011;64008;55.612;37.698;2023-02-07T15:16:27;6.90;;;3.90;;
75427;SDS011;64008;55.612;37.698;2023-02-07T15:18:59;8.85;;;3.75;;
75427;SDS011;64008;55.612;37.698;2023-02-07T15:21:32;8.23;;;3.65;;
75427;SDS011;64008;55.612;37.698;2023-02-07T15:26:38;6.93;;;3.83;;
75427;SDS011;64008;55.612;37.698;2023-02-07T15:29:05;6.57;;;3.80;;
75427;SDS011;64008;55.612;37.698;2023-02-07T15:31:42;7.63;;;3.80;;
75427;SDS011;64008;55.612;37.698;2023-02-07T15:34:16;7.07;;;3.67;;
75427;SDS011;64008;55.612;37.698;2023-02-07T15:36:47;7.68;;;3.80;;
75427;SDS011;64008;55.612;37.698;2023-02-07T15:39:19;6.95;;;3.67;;
75427;SDS011;64008;55.612;37.698;2023-02-07T15:41:50;6.30;;;3.38;;
75427;SDS011;64008;55.612;37.698;2023-02-07T15:44:22;6.85;;;3.72;;
75427;SDS011;64008;55.612;37.698;2023-02-07T15:46:59;7.65;;;3.40;;
75427;SDS011;64008;55.612;37.698;2023-02-07T15:49:39;6.65;;;3.53;;
75427;SDS011;64008;55.612;37.698;2023-02-07T15:52:16;7.18;;;3.85;;
75427;SDS011;64008;55.612;37.698;2023-02-07T15:55:12;8.07;;;4.07;;
75427;SDS011;64008;55.612;37.698;2023-02-07T15:57:42;8.50;;;4.13;;
75427;SDS011;64008;55.612;37.698;2023-02-07T16:00:20;7.15;;;4.05;;
75427;SDS011;64008;55.612;37.698;2023-02-07T16:02:55;7.00;;;3.90;;
75427;SDS011;64008;55.612;37.698;2023-02-07T16:16:25;7.07;;;3.55;;
75427;SDS011;64008;55.612;37.698;2023-02-07T16:19:15;7.65;;;3.78;;
75427;SDS011;64008;55.612;37.698;2023-02-07T16:21:48;7.05;;;3.75;;
75427;SDS011;64008;55.612;37.698;2023-02-07T16:24:20;7.65;;;3.35;;
75427;SDS011;64008;55.612;37.698;2023-02-07T16:26:48;8.15;;;3.50;;
75427;SDS011;64008;55.612;37.698;2023-02-07T16:29:15;5.50;;;2.97;;
75427;SDS011;64008;55.612;37.698;2023-02-07T16:31:44;6.95;;;3.80;;
75427;SDS011;64008;55.612;37.698;2023-02-07T16:34:11;6.13;;;3.20;;
75427;SDS011;64008;55.612;37.698;2023-02-07T16:36:38;6.45;;;3.13;;
75427;SDS011;64008;55.612;37.698;2023-02-07T16:39:04;7.72;;;3.75;;
75427;SDS011;64008;55.612;37.698;2023-02-07T16:41:33;8.57;;;3.60;;
75427;SDS011;64008;55.612;37.698;2023-02-07T16:44:07;10.07;;;4.10;;
75427;SDS011;64008;55.612;37.698;2023-02-07T16:46:37;7.18;;;3.50;;
75427;SDS011;64008;55.612;37.698;2023-02-07T16:49:08;7.85;;;3.53;;
75427;SDS011;64008;55.612;37.698;2023-02-07T16:51:40;7.68;;;3.78;;
75427;SDS011;64008;55.612;37.698;2023-02-07T16:54:06;8.73;;;3.60;;
75427;SDS011;64008;55.612;37.698;2023-02-07T16:56:31;10.20;;;3.78;;
75427;SDS011;64008;55.612;37.698;2023-02-07T16:58:57;9.45;;;3.85;;
75427;SDS011;64008;55.612;37.698;2023-02-07T17:01:25;7.90;;;4.13;;
75427;SDS011;64008;55.612;37.698;2023-02-07T17:03:51;7.50;;;4.00;;
75427;SDS011;64008;55.612;37.698;2023-02-07T17:06:17;10.50;;;4.10;;
75427;SDS011;64008;55.612;37.698;2023-02-07T17:08:45;7.82;;;4.07;;
75427;SDS011;64008;55.612;37.698;2023-02-07T17:11:17;8.15;;;4.15;;
75427;SDS011;64008;55.612;37.698;2023-02-07T17:13:52;6.82;;;3.45;;
75427;SDS011;64008;55.612;37.698;2023-02-07T17:16:20;6.63;;;3.22;;
75427;SDS011;64008;55.612;37.698;2023-02-07T17:18:46;7.43;;;3.40;;
75427;SDS011;64008;55.612;37.698;2023-02-07T17:21:11;18.08;;;8.60;;
75427;SDS011;64008;55.612;37.698;2023-02-07T17:26:04;13.27;;;5.55;;
75427;SDS011;64008;55.612;37.698;2023-02-07T17:28:42;16.27;;;6.38;;
75427;SDS011;64008;55.612;37.698;2023-02-07T17:31:09;12.23;;;5.72;;
75427;SDS011;64008;55.612;37.698;2023-02-07T17:33:36;12.85;;;5.03;;
75427;SDS011;64008;55.612;37.698;2023-02-07T17:36:02;12.75;;;5.07;;
75427;SDS011;64008;55.612;37.698;2023-02-07T17:38:27;10.50;;;4.60;;